Time;durP1;ratioP1;P1;durP2;ratioP2;P2;SDS_P1;SDS_P2;PMS_P1;PMS_P2;Temp;Humidity;BMP_temperature;BMP_pressure;BME280_temperature;BME280_humidity;BME280_pressure;Samples;Min_cycle;Max_cycle;Signal;HPM_P1;HPM_P2
2022/03/16 00:01:50;;;;;;;27.10;12.90;;;3.70;99.90;;;;;;5073541;28;20168;-72
2022/03/16 00:04:15;;;;;;;27.47;12.83;;;3.50;99.90;;;;;;5073732;28;20187;-72
2022/03/16 00:06:41;;;;;;;23.70;12.00;;;3.50;99.90;;;;;;5073695;28;20180;-74
2022/03/16 00:09:07;;;;;;;22.27;11.07;;;3.50;99.90;;;;;;5073587;28;20337;-74
2022/03/16 00:11:32;;;;;;;32.70;12.90;;;3.70;99.90;;;;;;5073363;28;20167;-74
2022/03/16 00:13:59;;;;;;;26.67;12.07;;;3.80;99.90;;;;;;5073528;28;20285;-74
2022/03/16 00:16:25;;;;;;;23.17;11.63;;;3.80;99.90;;;;;;5073341;28;20176;-74
2022/03/16 00:18:50;;;;;;;28.70;12.83;;;3.70;99.90;;;;;;5073531;28;20223;-74
2022/03/16 00:21:16;;;;;;;30.53;13.30;;;3.60;99.90;;;;;;5073206;28;20179;-74
2022/03/16 00:23:42;;;;;;;33.23;13.50;;;3.60;99.90;;;;;;5073527;28;20268;-74
2022/03/16 00:26:07;;;;;;;31.27;13.33;;;3.60;99.90;;;;;;5074658;28;20208;-75
2022/03/16 00:28:33;;;;;;;24.73;12.43;;;3.60;99.90;;;;;;5073143;28;20203;-72
2022/03/16 00:30:59;;;;;;;28.47;12.90;;;3.50;99.90;;;;;;5073427;28;20172;-72
2022/03/16 00:33:24;;;;;;;28.10;13.17;;;3.60;99.90;;;;;;5072568;28;20518;-74
2022/03/16 00:35:50;;;;;;;32.63;14.23;;;3.50;99.90;;;;;;5072635;28;20629;-75
2022/03/16 00:38:16;;;;;;;34.80;13.83;;;3.40;99.90;;;;;;5072548;28;20192;-74
2022/03/16 00:40:43;;;;;;;35.03;13.63;;;3.40;99.90;;;;;;5073020;28;20180;-73
2022/03/16 00:43:08;;;;;;;35.90;14.77;;;3.40;99.90;;;;;;5072879;28;20171;-72
2022/03/16 00:45:34;;;;;;;34.87;14.63;;;3.30;99.90;;;;;;5073246;28;20182;-73
2022/03/16 00:48:00;;;;;;;29.23;13.57;;;3.20;99.90;;;;;;5072975;28;20294;-73
2022/03/16 00:50:26;;;;;;;31.83;13.90;;;3.20;99.90;;;;;;5073662;28;20172;-74
2022/03/16 00:52:53;;;;;;;28.33;13.23;;;3.10;99.90;;;;;;5073560;28;20186;-77
2022/03/16 00:55:19;;;;;;;26.90;12.80;;;3.10;99.90;;;;;;5073888;28;20169;-72
2022/03/16 00:57:45;;;;;;;32.27;13.37;;;3.10;99.90;;;;;;5072757;28;20208;-72
2022/03/16 01:00:11;;;;;;;31.17;12.57;;;3.20;99.90;;;;;;5072221;28;20199;-74
2022/03/16 01:02:37;;;;;;;28.03;12.37;;;3.20;99.90;;;;;;5072580;28;20204;-74
2022/03/16 01:05:03;;;;;;;31.77;13.77;;;3.00;99.90;;;;;;5072369;28;20208;-73
2022/03/16 01:07:29;;;;;;;38.33;14.60;;;3.00;99.90;;;;;;5072633;28;20217;-74
2022/03/16 01:09:54;;;;;;;34.43;15.43;;;3.00;99.90;;;;;;5072544;28;20196;-73
2022/03/16 01:12:20;;;;;;;28.03;13.10;;;3.10;99.90;;;;;;5072275;28;20167;-72
2022/03/16 01:14:46;;;;;;;36.27;15.53;;;3.00;99.90;;;;;;5072425;28;20255;-72
2022/03/16 01:17:12;;;;;;;36.00;15.60;;;2.90;99.90;;;;;;5072326;28;20175;-71
2022/03/16 01:19:38;;;;;;;36.07;15.10;;;3.10;99.90;;;;;;5072215;28;20252;-72
2022/03/16 01:22:05;;;;;;;37.50;16.10;;;3.10;99.90;;;;;;5072149;28;20275;-72
2022/03/16 01:24:31;;;;;;;40.23;17.80;;;3.10;99.90;;;;;;5072224;28;20168;-72
2022/03/16 01:26:58;;;;;;;37.50;16.63;;;3.10;99.90;;;;;;5072260;28;20564;-72
2022/03/16 01:29:27;;;;;;;41.17;17.67;;;3.20;99.90;;;;;;5072003;28;20218;-72
2022/03/16 01:31:55;;;;;;;34.63;16.70;;;3.20;99.90;;;;;;5071978;28;20704;-72
2022/03/16 01:34:21;;;;;;;38.73;15.73;;;3.30;99.90;;;;;;5071919;28;20543;-72
2022/03/16 01:36:48;;;;;;;39.87;18.10;;;3.30;99.90;;;;;;5072004;28;20263;-72
2022/03/16 01:39:14;;;;;;;43.60;19.30;;;3.20;99.90;;;;;;5071819;28;20652;-72
2022/03/16 01:41:42;;;;;;;44.80;18.47;;;3.10;99.90;;;;;;5071882;28;20175;-72
2022/03/16 01:44:08;;;;;;;42.73;19.17;;;3.00;99.90;;;;;;5071909;28;20180;-73
2022/03/16 01:46:33;;;;;;;48.30;19.23;;;2.90;99.90;;;;;;5071628;28;20180;-74
2022/03/16 01:48:59;;;;;;;48.90;18.70;;;2.90;99.90;;;;;;5071602;28;20229;-74
2022/03/16 01:51:27;;;;;;;41.73;18.60;;;2.80;99.90;;;;;;5071724;28;20227;-74
2022/03/16 01:53:53;;;;;;;43.93;18.97;;;2.90;99.90;;;;;;5071722;28;20244;-72
2022/03/16 01:56:19;;;;;;;41.40;17.93;;;2.90;99.90;;;;;;5071590;28;20621;-72
2022/03/16 01:58:45;;;;;;;42.87;18.33;;;3.00;99.90;;;;;;5071005;28;20563;-73
2022/03/16 02:01:11;;;;;;;42.53;18.73;;;2.90;99.90;;;;;;5071360;28;20175;-72
2022/03/16 02:03:37;;;;;;;43.13;19.40;;;3.00;99.90;;;;;;5071120;28;20198;-73
2022/03/16 02:06:03;;;;;;;44.90;18.50;;;3.00;99.90;;;;;;5071553;28;20187;-73
2022/03/16 02:08:30;;;;;;;39.60;18.33;;;2.80;99.90;;;;;;5071269;28;20215;-73
2022/03/16 02:10:56;;;;;;;46.17;18.97;;;2.90;99.90;;;;;;5071215;28;20172;-73
2022/03/16 02:13:21;;;;;;;41.20;18.80;;;2.90;99.90;;;;;;5071018;28;20257;-71
2022/03/16 02:15:47;;;;;;;45.77;19.57;;;2.80;99.90;;;;;;5071199;28;20180;-71
2022/03/16 02:18:13;;;;;;;39.67;18.30;;;2.80;99.90;;;;;;5071253;28;20200;-71
2022/03/16 02:20:39;;;;;;;48.23;18.63;;;2.80;99.90;;;;;;5071143;28;20206;-71
2022/03/16 02:23:09;;;;;;;41.67;18.40;;;2.90;99.90;;;;;;5070914;28;20620;-71
2022/03/16 02:25:51;;;;;;;38.57;17.57;;;2.80;99.90;;;;;;5071081;28;20680;-71
2022/03/16 02:28:18;;;;;;;40.67;18.27;;;2.90;99.90;;;;;;5070959;28;20210;-73
2022/03/16 02:30:43;;;;;;;35.97;16.70;;;2.80;99.90;;;;;;5070990;28;20183;-72
2022/03/16 02:33:09;;;;;;;37.57;18.10;;;2.70;99.90;;;;;;5070730;28;20172;-73
2022/03/16 02:35:35;;;;;;;37.27;17.53;;;2.80;99.90;;;;;;5071015;28;20255;-71
2022/03/16 02:38:02;;;;;;;42.00;17.27;;;2.80;99.90;;;;;;5070400;28;20200;-71
2022/03/16 02:40:28;;;;;;;38.33;16.77;;;2.70;99.90;;;;;;5070922;28;20182;-71
2022/03/16 02:42:53;;;;;;;41.10;18.10;;;2.70;99.90;;;;;;5070726;28;20176;-71
2022/03/16 02:45:19;;;;;;;42.47;17.50;;;2.80;99.90;;;;;;5070899;28;20198;-71
2022/03/16 02:47:45;;;;;;;38.43;17.47;;;2.70;99.90;;;;;;5070602;28;20718;-73
2022/03/16 02:50:12;;;;;;;37.07;16.77;;;2.80;99.90;;;;;;5070937;28;20180;-72
2022/03/16 02:52:39;;;;;;;39.50;18.00;;;2.70;99.90;;;;;;5070446;28;20637;-72
2022/03/16 02:55:06;;;;;;;39.47;17.20;;;2.60;99.90;;;;;;5070701;28;20181;-72
2022/03/16 02:57:31;;;;;;;37.77;18.00;;;2.50;99.90;;;;;;5070144;28;20181;-72
2022/03/16 02:59:57;;;;;;;49.07;19.37;;;2.40;99.90;;;;;;5070222;28;20279;-72
2022/03/16 03:02:23;;;;;;;42.60;19.30;;;2.50;99.90;;;;;;5070094;28;20177;-71
2022/03/16 03:04:48;;;;;;;49.73;19.90;;;2.60;99.90;;;;;;5070237;28;20790;-71
2022/03/16 03:07:14;;;;;;;44.10;20.13;;;2.60;99.90;;;;;;5070172;28;20637;-71
2022/03/16 03:09:40;;;;;;;44.07;19.37;;;2.40;99.90;;;;;;5070218;28;20235;-71
2022/03/16 03:12:06;;;;;;;48.40;19.43;;;2.30;99.90;;;;;;5069998;28;20179;-72
2022/03/16 03:14:32;;;;;;;40.37;17.90;;;2.30;99.90;;;;;;5070167;28;20183;-71
2022/03/16 03:16:57;;;;;;;39.03;18.57;;;2.40;99.90;;;;;;5070278;28;20178;-71
2022/03/16 03:19:23;;;;;;;41.17;17.03;;;2.40;99.90;;;;;;5070194;28;20203;-71
2022/03/16 03:21:49;;;;;;;36.30;18.07;;;2.40;99.90;;;;;;5070190;28;20661;-71
2022/03/16 03:24:14;;;;;;;39.43;17.03;;;2.50;99.90;;;;;;5070520;28;20193;-72
2022/03/16 03:26:40;;;;;;;39.17;17.33;;;2.40;99.90;;;;;;5070493;28;20174;-72
2022/03/16 03:29:06;;;;;;;34.87;17.30;;;2.30;99.90;;;;;;5070383;28;20219;-72
2022/03/16 03:31:32;;;;;;;35.90;16.23;;;2.30;99.90;;;;;;5070208;28;20175;-73
2022/03/16 03:33:57;;;;;;;34.60;16.13;;;2.30;99.90;;;;;;5070291;28;20180;-72
2022/03/16 03:36:23;;;;;;;36.57;16.13;;;2.30;99.90;;;;;;5070427;28;20176;-72
2022/03/16 03:38:49;;;;;;;41.73;16.77;;;2.40;99.90;;;;;;5070022;28;20200;-72
2022/03/16 03:41:15;;;;;;;37.53;16.47;;;2.50;99.90;;;;;;5070289;28;20194;-72
2022/03/16 03:43:40;;;;;;;36.27;16.40;;;2.40;99.90;;;;;;5070830;28;20191;-71
2022/03/16 03:46:06;;;;;;;33.73;16.47;;;2.40;99.90;;;;;;5070440;28;20186;-71
2022/03/16 03:48:32;;;;;;;49.03;17.97;;;2.40;99.90;;;;;;5070221;28;20218;-71
2022/03/16 03:50:58;;;;;;;39.63;18.90;;;2.50;99.90;;;;;;5070090;28;20196;-71
2022/03/16 03:53:24;;;;;;;38.33;17.73;;;2.40;99.90;;;;;;5070110;28;20217;-71
2022/03/16 03:55:50;;;;;;;42.47;18.00;;;2.30;99.90;;;;;;5070188;28;20215;-71
2022/03/16 03:58:15;;;;;;;36.67;16.70;;;2.30;99.90;;;;;;5070177;28;20213;-71
2022/03/16 04:00:41;;;;;;;36.37;17.07;;;2.40;99.90;;;;;;5069988;28;20180;-70
2022/03/16 04:03:07;;;;;;;35.60;16.97;;;2.40;99.90;;;;;;5069973;28;20182;-71
2022/03/16 04:05:32;;;;;;;43.97;17.63;;;2.30;99.90;;;;;;5071023;28;20648;-71
2022/03/16 04:07:58;;;;;;;40.10;17.67;;;2.40;99.90;;;;;;5070281;28;20302;-71
2022/03/16 04:10:24;;;;;;;34.90;16.43;;;2.30;99.90;;;;;;5073740;28;20668;-71
2022/03/16 04:12:50;;;;;;;38.00;17.23;;;2.30;99.90;;;;;;5073436;28;20207;-71
2022/03/16 04:15:18;;;;;;;37.73;17.00;;;2.20;99.90;;;;;;5073580;28;20178;-71
2022/03/16 04:17:43;;;;;;;38.10;16.47;;;2.20;99.90;;;;;;5073469;28;20176;-71
2022/03/16 04:20:09;;;;;;;40.50;17.80;;;2.20;99.90;;;;;;5073528;28;20244;-71
2022/03/16 04:22:36;;;;;;;45.60;18.10;;;2.00;99.90;;;;;;5073301;28;20281;-71
2022/03/16 04:25:02;;;;;;;44.13;18.97;;;1.90;99.90;;;;;;5073468;28;20266;-71
2022/03/16 04:27:29;;;;;;;44.20;18.60;;;1.90;99.90;;;;;;5073338;28;20207;-71
2022/03/16 04:29:55;;;;;;;39.80;18.73;;;1.90;99.90;;;;;;5073315;28;20231;-71
2022/03/16 04:32:20;;;;;;;51.20;20.80;;;1.90;99.90;;;;;;5073148;28;20179;-71
2022/03/16 04:34:46;;;;;;;43.07;18.80;;;1.90;99.90;;;;;;5073243;28;20262;-71
2022/03/16 04:37:11;;;;;;;40.57;19.40;;;2.00;99.90;;;;;;5072925;28;20170;-71
2022/03/16 04:39:37;;;;;;;50.87;20.87;;;2.00;99.90;;;;;;5073011;28;20194;-72
2022/03/16 04:42:03;;;;;;;48.90;21.40;;;1.90;99.90;;;;;;5072996;28;20176;-72
2022/03/16 04:44:29;;;;;;;43.00;20.23;;;1.90;99.90;;;;;;5073024;28;20545;-72
2022/03/16 04:46:54;;;;;;;48.97;20.83;;;1.80;99.90;;;;;;5073138;28;20187;-72
2022/03/16 04:49:20;;;;;;;54.20;20.33;;;1.80;99.90;;;;;;5072757;28;20218;-73
2022/03/16 04:51:46;;;;;;;51.50;22.87;;;1.80;99.90;;;;;;5072660;28;20179;-72
2022/03/16 04:54:11;;;;;;;53.80;21.10;;;1.80;99.90;;;;;;5072855;28;20180;-72
2022/03/16 04:56:37;;;;;;;49.33;21.57;;;1.80;99.90;;;;;;5072940;28;20232;-72
2022/03/16 04:59:03;;;;;;;57.60;23.50;;;1.80;99.90;;;;;;5072644;28;20202;-72
2022/03/16 05:01:30;;;;;;;58.83;22.20;;;1.90;99.90;;;;;;5073977;28;20187;-72
2022/03/16 05:03:55;;;;;;;76.40;25.33;;;2.10;99.90;;;;;;5072433;28;20728;-72
2022/03/16 05:06:21;;;;;;;74.33;24.73;;;2.20;99.90;;;;;;5072758;28;20205;-73
2022/03/16 05:08:47;;;;;;;82.10;27.63;;;2.20;99.90;;;;;;5072488;28;20555;-73
2022/03/16 05:11:14;;;;;;;76.93;26.57;;;2.10;99.90;;;;;;5072500;28;20172;-72
2022/03/16 05:13:40;;;;;;;97.33;28.33;;;2.10;99.90;;;;;;5072469;28;20556;-72
2022/03/16 05:16:07;;;;;;;101.63;28.43;;;2.20;99.90;;;;;;5072586;28;20183;-73
2022/03/16 05:18:33;;;;;;;83.87;28.63;;;2.20;99.90;;;;;;5072333;28;20202;-72
2022/03/16 05:21:00;;;;;;;210.53;32.63;;;2.20;99.90;;;;;;5071786;28;20548;-73
2022/03/16 05:23:25;;;;;;;154.53;29.93;;;2.20;99.90;;;;;;5072209;28;20235;-73
2022/03/16 05:25:51;;;;;;;139.87;29.33;;;2.20;99.90;;;;;;5072228;28;20179;-73
2022/03/16 05:28:17;;;;;;;141.67;28.87;;;2.20;99.90;;;;;;5072034;28;20249;-73
2022/03/16 05:30:43;;;;;;;146.60;29.40;;;2.10;99.90;;;;;;5072333;28;20198;-73
2022/03/16 05:33:09;;;;;;;94.43;30.63;;;2.00;99.90;;;;;;5072260;28;20598;-73
2022/03/16 05:35:35;;;;;;;100.73;29.67;;;2.10;99.90;;;;;;5072134;28;20228;-73
2022/03/16 05:38:05;;;;;;;245.03;30.40;;;2.20;99.90;;;;;;5071650;28;20698;-73
2022/03/16 05:40:31;;;;;;;159.70;28.53;;;2.30;99.90;;;;;;5072055;28;20199;-72
2022/03/16 05:42:56;;;;;;;360.00;34.73;;;2.30;99.90;;;;;;5071664;28;20215;-73
2022/03/16 05:45:22;;;;;;;216.77;31.43;;;2.30;99.90;;;;;;5071920;28;20173;-73
2022/03/16 05:47:48;;;;;;;284.20;35.03;;;2.30;99.90;;;;;;5071575;28;20262;-72
2022/03/16 05:50:14;;;;;;;210.30;30.13;;;2.30;99.90;;;;;;5071765;28;20170;-71
2022/03/16 05:52:41;;;;;;;229.97;33.53;;;2.20;99.90;;;;;;5071624;28;20184;-71
2022/03/16 05:55:07;;;;;;;206.37;33.03;;;2.10;99.90;;;;;;5071621;28;20179;-72
2022/03/16 05:57:36;;;;;;;101.50;29.87;;;2.10;99.90;;;;;;5071909;28;20170;-71
2022/03/16 06:00:02;;;;;;;214.53;33.97;;;2.20;99.90;;;;;;5071317;28;20186;-74
2022/03/16 06:02:27;;;;;;;142.67;31.17;;;2.20;99.90;;;;;;5072135;28;20181;-72
2022/03/16 06:04:53;;;;;;;237.53;35.80;;;2.20;99.90;;;;;;5072086;28;20251;-75
2022/03/16 06:07:19;;;;;;;196.60;34.83;;;2.20;99.90;;;;;;5072200;28;20221;-73
2022/03/16 06:09:44;;;;;;;191.57;33.57;;;2.20;99.90;;;;;;5071424;28;20217;-71
2022/03/16 06:12:10;;;;;;;142.83;33.13;;;2.20;99.90;;;;;;5071018;28;20233;-72
2022/03/16 06:14:36;;;;;;;142.17;34.27;;;2.30;99.90;;;;;;5071294;28;20179;-71
2022/03/16 06:17:03;;;;;;;207.20;37.27;;;2.30;99.90;;;;;;5071141;28;20182;-71
2022/03/16 06:19:28;;;;;;;144.87;36.47;;;2.30;99.90;;;;;;5071058;28;20207;-71
2022/03/16 06:21:54;;;;;;;177.43;36.87;;;2.10;99.90;;;;;;5070977;28;20216;-71
2022/03/16 06:24:20;;;;;;;165.20;34.13;;;2.30;99.90;;;;;;5071060;28;20541;-71
2022/03/16 06:26:45;;;;;;;167.20;35.83;;;2.40;99.90;;;;;;5070991;28;20177;-71
2022/03/16 06:29:11;;;;;;;166.17;36.53;;;2.50;99.90;;;;;;5070966;28;20213;-71
2022/03/16 06:31:36;;;;;;;98.00;34.73;;;2.40;99.90;;;;;;5070117;28;20178;-71
2022/03/16 06:34:02;;;;;;;107.70;36.50;;;2.40;99.90;;;;;;5070924;28;20212;-71
2022/03/16 06:36:28;;;;;;;110.67;36.20;;;2.40;99.90;;;;;;5071008;28;20258;-72
2022/03/16 06:38:55;;;;;;;112.23;35.83;;;2.30;99.90;;;;;;5070475;28;20200;-71
2022/03/16 06:41:21;;;;;;;114.43;36.10;;;2.10;99.90;;;;;;5070727;28;20243;-72
2022/03/16 06:43:47;;;;;;;125.77;34.57;;;2.10;99.90;;;;;;5070751;28;20639;-72
2022/03/16 06:46:13;;;;;;;108.47;35.37;;;2.30;99.90;;;;;;5070818;28;20184;-71
2022/03/16 06:48:39;;;;;;;96.93;36.17;;;2.40;99.90;;;;;;5070667;28;20211;-71
2022/03/16 06:51:05;;;;;;;92.47;35.40;;;2.40;99.90;;;;;;5070554;28;20553;-72
2022/03/16 06:53:31;;;;;;;113.70;36.00;;;2.40;99.90;;;;;;5070789;28;20781;-72
2022/03/16 06:55:56;;;;;;;100.93;35.37;;;2.40;99.90;;;;;;5070776;28;20175;-72
2022/03/16 06:58:22;;;;;;;101.53;35.87;;;2.60;99.90;;;;;;5070669;28;20651;-72
2022/03/16 07:00:48;;;;;;;86.77;33.70;;;2.60;99.90;;;;;;5070299;28;20228;-72
2022/03/16 07:03:13;;;;;;;87.57;33.83;;;2.70;99.90;;;;;;5070473;28;20188;-72
2022/03/16 07:05:41;;;;;;;85.57;34.27;;;2.90;99.90;;;;;;5070166;28;20176;-72
2022/03/16 07:08:09;;;;;;;87.10;34.57;;;3.00;99.90;;;;;;5070405;28;20642;-72
2022/03/16 07:10:35;;;;;;;74.30;33.20;;;3.30;99.90;;;;;;5070587;28;20320;-72
2022/03/16 07:13:02;;;;;;;72.47;29.83;;;3.30;99.90;;;;;;5070324;28;20190;-71
2022/03/16 07:15:30;;;;;;;51.53;26.63;;;3.20;99.90;;;;;;5070502;28;20325;-72
2022/03/16 07:17:56;;;;;;;43.00;22.17;;;3.30;99.90;;;;;;5070425;28;20201;-73
2022/03/16 07:20:22;;;;;;;38.27;20.80;;;3.80;99.90;;;;;;5070571;28;20700;-73
2022/03/16 07:23:04;;;;;;;31.70;18.33;;;4.80;99.90;;;;;;5070211;28;20179;-73
2022/03/16 07:25:30;;;;;;;29.43;16.17;;;5.50;99.90;;;;;;5070437;28;20174;-73
2022/03/16 07:27:56;;;;;;;23.53;14.13;;;6.00;99.90;;;;;;5070323;28;20230;-73
2022/03/16 07:30:21;;;;;;;22.37;13.13;;;5.70;99.90;;;;;;5070424;28;20629;-73
2022/03/16 07:32:47;;;;;;;24.10;12.13;;;5.40;99.90;;;;;;5070147;28;20181;-74
2022/03/16 07:35:13;;;;;;;25.17;13.47;;;5.20;99.90;;;;;;5071579;28;20196;-75
2022/03/16 07:37:42;;;;;;;23.80;12.50;;;6.30;99.90;;;;;;5069913;28;20599;-75
2022/03/16 07:40:08;;;;;;;24.87;13.67;;;6.40;99.90;;;;;;5070400;28;20279;-75
2022/03/16 07:42:34;;;;;;;23.20;12.77;;;7.50;99.90;;;;;;5071597;28;20175;-75
2022/03/16 07:45:00;;;;;;;18.63;11.47;;;7.90;99.90;;;;;;5074077;28;20175;-75
2022/03/16 07:47:26;;;;;;;18.17;10.83;;;8.20;99.90;;;;;;5074294;28;20263;-74
2022/03/16 07:49:52;;;;;;;17.73;11.57;;;8.40;99.90;;;;;;5073921;28;20213;-75
2022/03/16 07:52:20;;;;;;;20.43;11.73;;;10.10;99.90;;;;;;5073838;28;20660;-74
2022/03/16 07:54:45;;;;;;;17.53;10.83;;;11.40;99.90;;;;;;5073809;28;20179;-75
2022/03/16 07:57:11;;;;;;;18.93;10.63;;;11.60;99.90;;;;;;5073935;28;20174;-75
2022/03/16 07:59:37;;;;;;;19.10;11.67;;;11.20;99.90;;;;;;5074770;28;20257;-74
2022/03/16 08:02:02;;;;;;;18.63;11.70;;;11.20;99.90;;;;;;5073646;28;20631;-74
2022/03/16 08:04:28;;;;;;;18.47;11.40;;;11.00;99.90;;;;;;5073290;28;20262;-74
2022/03/16 08:06:54;;;;;;;21.00;12.17;;;11.70;99.90;;;;;;5073694;28;20628;-75
2022/03/16 08:09:19;;;;;;;19.70;11.70;;;12.30;99.90;;;;;;5073318;28;20208;-75
2022/03/16 08:11:45;;;;;;;23.27;12.53;;;11.60;99.90;;;;;;5073696;28;20169;-74
2022/03/16 08:14:12;;;;;;;18.17;11.90;;;12.30;99.90;;;;;;5073486;28;20185;-74
2022/03/16 08:16:38;;;;;;;23.53;12.93;;;12.60;99.70;;;;;;5073566;28;20622;-75
2022/03/16 08:19:04;;;;;;;25.57;12.70;;;12.80;99.90;;;;;;5073407;28;20227;-75
2022/03/16 08:21:30;;;;;;;24.93;12.40;;;11.80;99.90;;;;;;5073226;28;20176;-74
2022/03/16 08:23:55;;;;;;;21.33;12.13;;;10.60;99.90;;;;;;5073373;28;20184;-74
2022/03/16 08:26:21;;;;;;;21.97;12.10;;;10.20;99.90;;;;;;5073389;28;20184;-73
2022/03/16 08:28:47;;;;;;;27.33;12.97;;;10.00;99.90;;;;;;5073183;28;20266;-73
2022/03/16 08:31:14;;;;;;;22.90;12.00;;;10.10;99.90;;;;;;5072873;28;20176;-74
2022/03/16 08:33:41;;;;;;;20.93;11.77;;;9.90;99.90;;;;;;5073108;28;20590;-74
2022/03/16 08:36:07;;;;;;;25.27;11.60;;;10.40;99.90;;;;;;5073209;28;20172;-74
2022/03/16 08:38:36;;;;;;;19.13;10.60;;;11.70;99.90;;;;;;5071948;28;20207;-74
2022/03/16 08:41:06;;;;;;;18.37;10.97;;;12.30;99.90;;;;;;5070845;28;20183;-73
2022/03/16 08:43:35;;;;;;;18.90;10.93;;;13.20;99.90;;;;;;5072301;28;20199;-75
2022/03/16 08:46:01;;;;;;;19.83;10.90;;;13.10;99.90;;;;;;5072031;28;20188;-74
2022/03/16 08:48:27;;;;;;;21.30;11.00;;;14.20;97.90;;;;;;5071803;28;20204;-75
2022/03/16 08:50:52;;;;;;;19.03;10.70;;;13.20;98.40;;;;;;5072249;28;20680;-75
2022/03/16 08:53:18;;;;;;;20.23;11.73;;;12.70;99.90;;;;;;5072109;28;20273;-75
2022/03/16 08:55:44;;;;;;;23.53;11.67;;;12.80;99.40;;;;;;5071035;28;20222;-75
2022/03/16 08:58:10;;;;;;;18.40;10.73;;;12.90;99.50;;;;;;5072308;28;20247;-75
2022/03/16 09:00:37;;;;;;;18.80;10.93;;;12.40;99.90;;;;;;5072127;28;20183;-72
2022/03/16 09:03:03;;;;;;;21.43;11.67;;;12.20;99.90;;;;;;5071770;28;20597;-72
2022/03/16 09:05:29;;;;;;;20.80;11.77;;;12.40;99.90;;;;;;5072103;28;20176;-73
2022/03/16 09:07:54;;;;;;;21.50;12.27;;;12.40;99.90;;;;;;5071537;28;20201;-73
2022/03/16 09:10:20;;;;;;;22.33;12.13;;;12.40;99.90;;;;;;5071957;28;20199;-74
2022/03/16 09:12:46;;;;;;;21.30;11.57;;;13.00;99.90;;;;;;5071767;28;20191;-73
2022/03/16 09:15:12;;;;;;;23.00;11.93;;;12.70;99.90;;;;;;5072044;28;20601;-75
2022/03/16 09:17:38;;;;;;;23.60;11.37;;;12.70;99.90;;;;;;5071724;28;20173;-73
2022/03/16 09:20:04;;;;;;;25.60;12.40;;;12.10;99.90;;;;;;5071689;28;20176;-74
2022/03/16 09:22:30;;;;;;;26.03;11.77;;;12.30;99.90;;;;;;5071341;28;20172;-74
2022/03/16 09:24:56;;;;;;;27.50;12.80;;;12.80;99.90;;;;;;5071868;28;20179;-75
2022/03/16 09:27:22;;;;;;;23.27;12.07;;;12.10;99.90;;;;;;5071936;28;20168;-75
2022/03/16 09:29:49;;;;;;;24.30;11.90;;;12.30;99.90;;;;;;5071322;28;20212;-75
2022/03/16 09:32:15;;;;;;;27.53;12.70;;;12.20;99.90;;;;;;5071563;28;20238;-74
2022/03/16 09:34:42;;;;;;;29.43;12.23;;;12.30;99.90;;;;;;5073046;28;20176;-75
2022/03/16 09:37:09;;;;;;;26.13;12.03;;;12.30;99.90;;;;;;5071107;28;20272;-75
2022/03/16 09:39:36;;;;;;;26.07;13.00;;;11.90;99.90;;;;;;5071456;28;20231;-74
2022/03/16 09:42:04;;;;;;;23.63;12.23;;;12.40;99.90;;;;;;5071328;28;20633;-75
2022/03/16 09:44:30;;;;;;;27.33;12.53;;;12.40;99.90;;;;;;5071041;28;20174;-74
2022/03/16 09:46:58;;;;;;;27.60;12.70;;;12.30;99.90;;;;;;5071086;28;20185;-75
2022/03/16 09:49:26;;;;;;;26.27;12.30;;;12.30;99.90;;;;;;5071175;28;20719;-74
2022/03/16 09:51:53;;;;;;;26.87;11.93;;;12.50;99.90;;;;;;5070373;28;20715;-74
2022/03/16 09:54:22;;;;;;;30.20;12.77;;;12.40;99.90;;;;;;5070625;28;20652;-75
2022/03/16 09:56:48;;;;;;;24.30;11.57;;;12.30;99.90;;;;;;5070847;28;20252;-74
2022/03/16 09:59:15;;;;;;;29.27;13.50;;;12.30;99.90;;;;;;5071098;28;20207;-74
2022/03/16 10:01:44;;;;;;;27.73;12.87;;;12.60;99.90;;;;;;5070395;28;20772;-75
2022/03/16 10:04:10;;;;;;;25.10;12.77;;;13.00;99.90;;;;;;5070792;28;20183;-74
2022/03/16 10:06:41;;;;;;;25.63;13.23;;;13.00;99.70;;;;;;5070454;28;20204;-74
2022/03/16 10:15:13;;;;;;;28.43;13.90;;;13.00;99.80;;;;;;5071929;28;20222;-74
2022/03/16 10:17:45;;;;;;;26.47;12.63;;;12.70;99.90;;;;;;5070115;28;20172;-75
2022/03/16 10:20:17;;;;;;;24.97;12.17;;;13.00;98.40;;;;;;5070154;28;20173;-76
2022/03/16 10:22:43;;;;;;;23.73;12.33;;;13.10;98.10;;;;;;5070153;28;20268;-75
2022/03/16 10:25:10;;;;;;;24.67;12.60;;;13.30;98.40;;;;;;5070606;28;20262;-74
2022/03/16 10:27:37;;;;;;;25.20;12.67;;;13.10;97.50;;;;;;5070749;28;20169;-76
2022/03/16 10:30:07;;;;;;;25.30;13.13;;;12.90;98.30;;;;;;5070774;28;20256;-76
2022/03/16 10:32:36;;;;;;;28.73;13.70;;;13.10;97.40;;;;;;5070234;28;20641;-75
2022/03/16 10:35:05;;;;;;;29.33;14.13;;;13.50;97.20;;;;;;5070795;28;20248;-74
2022/03/16 10:37:34;;;;;;;28.07;13.57;;;13.40;97.50;;;;;;5070822;28;20176;-74
2022/03/16 10:40:00;;;;;;;25.33;13.10;;;13.50;97.20;;;;;;5070818;28;20204;-75
2022/03/16 10:48:16;;;;;;;26.20;12.73;;;13.30;96.80;;;;;;5072229;28;20272;-74
2022/03/16 10:50:42;;;;;;;25.27;13.00;;;13.40;96.40;;;;;;5072010;28;20248;-74
2022/03/16 10:53:14;;;;;;;27.03;13.00;;;12.80;97.00;;;;;;5070864;28;20165;-74
2022/03/16 10:55:41;;;;;;;31.30;14.37;;;12.90;97.00;;;;;;5070048;28;20167;-75
2022/03/16 10:58:10;;;;;;;28.77;13.20;;;13.30;97.20;;;;;;5070450;28;20246;-75
2022/03/16 11:00:37;;;;;;;27.17;13.03;;;13.00;96.50;;;;;;5070862;28;20176;-75
2022/03/16 11:03:15;;;;;;;30.77;13.63;;;13.20;97.80;;;;;;5070640;28;20177;-74
2022/03/16 11:05:45;;;;;;;25.77;12.60;;;13.40;96.30;;;;;;5070441;28;20542;-73
2022/03/16 11:08:11;;;;;;;28.70;13.57;;;13.20;96.90;;;;;;5070653;28;20253;-74
2022/03/16 11:10:38;;;;;;;26.63;12.90;;;13.20;97.70;;;;;;5070653;28;20180;-75
2022/03/16 11:15:51;;;;;;;26.30;12.90;;;13.50;95.80;;;;;;5072172;28;20163;-73
2022/03/16 11:18:18;;;;;;;29.67;14.43;;;13.70;96.00;;;;;;5071617;28;20196;-75
2022/03/16 11:20:54;;;;;;;26.67;13.37;;;13.60;95.50;;;;;;5074762;28;20221;-74
2022/03/16 11:26:42;;;;;;;31.20;13.60;;;14.00;95.20;;;;;;5076236;28;20175;-73
2022/03/16 11:29:38;;;;;;;29.50;13.50;;;14.20;94.50;;;;;;5057250;28;20615;-73
2022/03/16 11:32:15;;;;;;;27.67;13.40;;;14.50;94.30;;;;;;5074426;28;20541;-74
2022/03/16 11:34:53;;;;;;;25.93;13.43;;;15.00;93.60;;;;;;5074557;28;20168;-75
2022/03/16 11:37:32;;;;;;;30.30;14.30;;;14.60;93.20;;;;;;5074661;28;20165;-75
2022/03/16 11:40:10;;;;;;;25.57;13.03;;;14.60;93.30;;;;;;5074242;28;20796;-74
2022/03/16 11:42:37;;;;;;;27.53;13.77;;;14.80;94.10;;;;;;5074007;28;20173;-74
2022/03/16 11:45:41;;;;;;;22.50;12.80;;;15.00;93.90;;;;;;5074034;28;20173;-74
2022/03/16 11:48:31;;;;;;;28.23;13.93;;;14.70;92.30;;;;;;5073919;28;20650;-74
2022/03/16 11:51:09;;;;;;;25.67;12.87;;;14.60;92.60;;;;;;5074113;28;20509;-75
2022/03/16 11:53:47;;;;;;;33.67;14.13;;;14.70;92.90;;;;;;5074125;28;20168;-74
2022/03/16 11:56:23;;;;;;;27.83;14.10;;;15.20;92.90;;;;;;5073979;28;20169;-75
2022/03/16 11:58:52;;;;;;;24.47;13.17;;;14.90;91.40;;;;;;5073729;28;20600;-74
2022/03/16 12:01:28;;;;;;;24.13;13.57;;;15.10;92.30;;;;;;5073527;28;20256;-75
2022/03/16 12:04:12;;;;;;;27.30;13.73;;;15.50;91.90;;;;;;5073479;28;20172;-76
2022/03/16 12:07:01;;;;;;;24.57;12.73;;;16.10;91.10;;;;;;5073549;28;20174;-75
2022/03/16 12:09:51;;;;;;;26.77;13.30;;;16.20;90.20;;;;;;5073379;28;20213;-76
2022/03/16 12:15:36;;;;;;;24.53;12.93;;;15.90;90.60;;;;;;5074757;28;20225;-73
2022/03/16 12:18:02;;;;;;;22.97;12.80;;;15.00;90.10;;;;;;5073305;28;20254;-73
2022/03/16 12:20:30;;;;;;;23.77;13.03;;;14.80;91.30;;;;;;5074820;28;20682;-73
2022/03/16 12:23:09;;;;;;;24.57;13.00;;;14.80;91.00;;;;;;5073138;28;20184;-73
2022/03/16 12:25:37;;;;;;;22.50;12.37;;;15.00;91.20;;;;;;5072830;28;20344;-73
2022/03/16 12:30:54;;;;;;;21.70;13.47;;;14.80;90.60;;;;;;5072998;28;20484;-75
2022/03/16 12:33:24;;;;;;;25.47;12.87;;;15.20;91.00;;;;;;5072929;28;20211;-74
2022/03/16 12:35:50;;;;;;;28.03;13.07;;;15.30;91.40;;;;;;5072770;28;20172;-75
2022/03/16 12:38:17;;;;;;;29.50;13.23;;;15.00;90.50;;;;;;5072944;28;20195;-75
2022/03/16 12:43:30;;;;;;;26.70;14.60;;;15.00;90.40;;;;;;5074835;28;20180;-75
2022/03/16 12:46:23;;;;;;;27.73;13.90;;;15.20;90.60;;;;;;5072948;28;20596;-74
2022/03/16 12:48:53;;;;;;;27.07;13.63;;;15.20;90.70;;;;;;5072835;28;20580;-75
2022/03/16 12:51:37;;;;;;;26.13;13.83;;;15.10;90.20;;;;;;5072677;28;20177;-72
2022/03/16 12:54:05;;;;;;;26.73;13.23;;;14.80;90.40;;;;;;5072799;28;20204;-72
2022/03/16 12:56:36;;;;;;;23.63;12.63;;;15.10;91.20;;;;;;5072987;28;20172;-72
2022/03/16 12:59:02;;;;;;;22.20;12.70;;;15.10;89.40;;;;;;5072459;28;20253;-73
2022/03/16 13:01:29;;;;;;;20.03;11.37;;;15.00;89.20;;;;;;5072641;28;20267;-73